createdAt,value
2023-06-14T00:01:35.760Z,32.05
2023-06-14T00:04:02.873Z,32.39
2023-06-14T00:06:30.114Z,32.33
2023-06-14T00:08:56.923Z,32.43
2023-06-14T00:11:23.687Z,32.36
2023-06-14T00:13:50.393Z,32.23
2023-06-14T00:16:17.123Z,32.08
2023-06-14T00:18:43.807Z,31.92
2023-06-14T00:21:10.515Z,32.14
2023-06-14T00:23:37.384Z,31.81
2023-06-14T00:26:04.264Z,32.30
2023-06-14T00:28:30.952Z,32.12
2023-06-14T00:30:57.837Z,32.04
2023-06-14T00:33:24.525Z,32.15
2023-06-14T00:35:51.278Z,32.03
2023-06-14T00:38:18.004Z,32.33
2023-06-14T00:40:44.683Z,31.46
2023-06-14T00:43:11.349Z,31.59
2023-06-14T00:45:40.559Z,31.33
2023-06-14T00:48:09.324Z,32.29
2023-06-14T00:50:36.881Z,31.89
2023-06-14T00:53:03.748Z,32.26
2023-06-14T00:55:31.156Z,31.92
2023-06-14T00:57:58.203Z,31.39
2023-06-14T01:00:24.966Z,31.76
2023-06-14T01:02:51.892Z,32.03
2023-06-14T01:05:20.060Z,32.10
2023-06-14T01:08:29.232Z,31.79
2023-06-14T01:11:08.263Z,32.45
2023-06-14T01:13:41.733Z,32.49
2023-06-14T01:16:09.523Z,32.66
2023-06-14T01:18:37.270Z,32.17
2023-06-14T01:21:04.252Z,32.44
2023-06-14T01:23:31.027Z,32.79
2023-06-14T01:25:57.765Z,32.23
2023-06-14T01:28:25.929Z,32.69
2023-06-14T01:30:55.797Z,32.61
2023-06-14T01:33:24.969Z,32.13
2023-06-14T01:35:56.818Z,32.25
2023-06-14T01:38:26.719Z,32.38
2023-06-14T01:40:58.101Z,32.38
2023-06-14T01:43:26.703Z,32.50
2023-06-14T01:45:55.611Z,32.16
2023-06-14T01:48:22.972Z,32.91
2023-06-14T01:50:50.994Z,32.97
2023-06-14T01:53:19.133Z,32.92
2023-06-14T01:55:48.363Z,33.25
2023-06-14T01:58:16.857Z,33.41
2023-06-14T02:00:43.559Z,33.73
2023-06-14T02:03:10.436Z,34.21
2023-06-14T02:05:37.170Z,34.14
2023-06-14T02:08:04.027Z,34.14
2023-06-14T02:10:30.804Z,34.00
2023-06-14T02:12:57.574Z,34.45
2023-06-14T02:15:24.287Z,34.44
2023-06-14T02:17:51.084Z,34.62
2023-06-14T02:20:18.487Z,34.08
2023-06-14T02:22:46.160Z,34.75
2023-06-14T02:25:12.855Z,34.52
2023-06-14T02:27:39.918Z,34.70
2023-06-14T02:30:07.176Z,34.86
2023-06-14T02:32:34.180Z,35.18
2023-06-14T02:35:00.951Z,35.44
2023-06-14T02:37:27.653Z,35.75
2023-06-14T02:39:54.412Z,35.89
2023-06-14T02:42:21.085Z,35.52
2023-06-14T02:44:47.785Z,35.13
2023-06-14T02:47:14.492Z,35.21
2023-06-14T02:49:41.199Z,35.33
2023-06-14T02:52:07.887Z,35.74
2023-06-14T02:54:34.565Z,35.98
2023-06-14T02:57:01.404Z,35.96
2023-06-14T02:59:28.273Z,36.41
2023-06-14T03:01:54.998Z,36.18
2023-06-14T03:04:21.685Z,36.09
2023-06-14T03:06:48.404Z,36.39
2023-06-14T03:09:15.162Z,35.33
2023-06-14T03:11:41.862Z,36.10
2023-06-14T03:14:08.581Z,35.56
2023-06-14T03:16:35.510Z,35.79
2023-06-14T03:19:04.562Z,36.15
2023-06-14T03:21:31.353Z,35.59
2023-06-14T03:23:58.105Z,36.11
2023-06-14T03:26:24.817Z,35.68
2023-06-14T03:28:51.556Z,36.07
2023-06-14T03:31:18.426Z,36.13
2023-06-14T03:33:45.142Z,35.70
2023-06-14T03:36:11.854Z,35.45
2023-06-14T03:38:38.835Z,35.89
2023-06-14T03:41:05.544Z,34.96
2023-06-14T03:43:32.234Z,35.48
2023-06-14T03:45:58.977Z,35.34
2023-06-14T03:48:25.835Z,35.39
2023-06-14T03:50:52.673Z,35.68
2023-06-14T03:53:19.379Z,35.16
2023-06-14T03:58:16.632Z,35.37
2023-06-14T04:00:43.330Z,34.95
2023-06-14T04:03:10.188Z,35.26
2023-06-14T04:05:37.031Z,35.41
2023-06-14T04:08:03.905Z,34.82
2023-06-14T04:10:30.592Z,34.83
2023-06-14T04:12:57.306Z,34.82
2023-06-14T04:15:24.343Z,35.07
2023-06-14T04:17:51.420Z,34.79
2023-06-14T04:20:18.232Z,34.82
2023-06-14T04:22:45.014Z,34.57
2023-06-14T04:25:11.734Z,35.00
2023-06-14T04:27:38.718Z,34.97
2023-06-14T04:30:06.095Z,35.36
2023-06-14T04:32:32.861Z,35.28
2023-06-14T04:34:59.663Z,35.72
2023-06-14T04:37:26.537Z,35.26
2023-06-14T04:39:53.295Z,35.29
2023-06-14T04:42:20.017Z,35.43
2023-06-14T04:44:46.721Z,35.86
2023-06-14T04:47:14.552Z,34.95
2023-06-14T04:49:41.332Z,35.57
2023-06-14T04:52:08.247Z,35.83
2023-06-14T04:54:35.079Z,35.38
2023-06-14T04:57:01.830Z,35.23
2023-06-14T04:59:31.313Z,35.66
2023-06-14T05:01:58.151Z,35.13
2023-06-14T05:04:25.995Z,35.02
2023-06-14T05:06:52.669Z,34.87
2023-06-14T05:09:19.426Z,35.64
2023-06-14T05:11:46.149Z,37.18
2023-06-14T05:14:13.311Z,36.20
2023-06-14T05:16:41.149Z,36.01
2023-06-14T05:19:08.356Z,36.15
2023-06-14T05:21:40.522Z,36.37
2023-06-14T05:24:09.182Z,35.58
2023-06-14T05:26:36.027Z,36.35
2023-06-14T05:29:05.041Z,35.57
2023-06-14T05:31:31.848Z,36.50
2023-06-14T05:33:58.621Z,35.83
2023-06-14T05:36:25.449Z,36.05
2023-06-14T05:38:52.489Z,36.33
2023-06-14T05:41:19.163Z,36.03
2023-06-14T05:43:45.851Z,36.19
2023-06-14T05:46:12.540Z,36.75
2023-06-14T05:48:39.234Z,35.88
2023-06-14T05:51:05.923Z,36.78
2023-06-14T05:53:32.650Z,36.40
2023-06-14T05:55:59.368Z,35.79
2023-06-14T05:58:26.186Z,35.68
2023-06-14T06:00:53.133Z,35.13
2023-06-14T06:03:20.144Z,35.19
2023-06-14T06:05:47.026Z,34.67
2023-06-14T06:08:13.818Z,34.01
2023-06-14T06:10:40.564Z,33.60
2023-06-14T06:13:07.805Z,33.11
2023-06-14T06:15:36.582Z,33.16
2023-06-14T06:18:03.455Z,32.79
2023-06-14T06:20:31.114Z,31.40
2023-06-14T06:22:58.674Z,31.09
2023-06-14T06:25:26.150Z,29.60
2023-06-14T06:27:56.385Z,29.60
2023-06-14T06:30:23.494Z,29.47
2023-06-14T06:32:50.246Z,29.46
2023-06-14T06:35:17.218Z,28.05
2023-06-14T06:37:44.623Z,27.34
2023-06-14T06:40:11.566Z,26.72
2023-06-14T06:42:38.336Z,24.86
2023-06-14T06:45:06.845Z,24.40
2023-06-14T06:47:33.572Z,23.65
2023-06-14T06:50:00.283Z,21.21
2023-06-14T06:52:26.990Z,20.58
2023-06-14T06:54:53.739Z,21.44
2023-06-14T06:57:20.504Z,20.00
2023-06-14T06:59:47.211Z,20.29
2023-06-14T07:02:14.097Z,20.49
2023-06-14T07:04:40.826Z,19.77
2023-06-14T07:07:07.653Z,19.68
2023-06-14T07:09:34.350Z,19.14
2023-06-14T07:12:01.057Z,18.67
2023-06-14T07:14:27.970Z,18.99
2023-06-14T07:16:55.068Z,18.67
2023-06-14T07:19:22.146Z,18.56
2023-06-14T07:21:49.519Z,19.19
2023-06-14T07:24:16.606Z,19.28
2023-06-14T07:26:43.613Z,20.42
2023-06-14T07:29:10.514Z,20.56
2023-06-14T07:31:37.232Z,20.73
2023-06-14T07:34:04.169Z,20.62
2023-06-14T07:36:33.932Z,19.27
2023-06-14T07:39:00.729Z,19.05
2023-06-14T07:41:27.453Z,20.65
2023-06-14T07:43:54.162Z,20.44
2023-06-14T07:46:20.999Z,20.13
2023-06-14T07:48:47.816Z,21.53
2023-06-14T07:51:17.191Z,21.32
2023-06-14T07:53:43.893Z,20.78
2023-06-14T07:56:10.603Z,19.87
2023-06-14T07:58:37.327Z,20.34
2023-06-14T08:01:04.042Z,19.75
2023-06-14T08:03:30.963Z,19.01
2023-06-14T08:05:57.931Z,19.92
2023-06-14T08:08:24.783Z,19.46
2023-06-14T08:10:51.541Z,19.32
2023-06-14T08:13:18.445Z,20.55
2023-06-14T08:15:45.299Z,18.98
2023-06-14T08:18:12.143Z,19.43
2023-06-14T08:20:38.868Z,19.80
2023-06-14T08:23:05.669Z,19.81
2023-06-14T08:25:32.462Z,18.51
2023-06-14T08:28:00.312Z,19.22
2023-06-14T08:30:27.232Z,18.13
2023-06-14T08:33:06.040Z,19.17
2023-06-14T08:35:40.626Z,18.71
2023-06-14T08:38:07.364Z,19.25
2023-06-14T08:40:38.551Z,22.32
2023-06-14T08:43:05.401Z,23.48
2023-06-14T08:45:32.773Z,24.87
2023-06-14T08:48:01.439Z,25.15
2023-06-14T08:50:29.564Z,24.13
2023-06-14T08:53:02.123Z,23.97
2023-06-14T08:55:31.381Z,26.98
2023-06-14T08:58:00.044Z,26.96
2023-06-14T09:00:28.890Z,25.10
2023-06-14T09:02:55.960Z,26.38
2023-06-14T09:05:24.727Z,25.54
2023-06-14T09:07:51.759Z,26.91
2023-06-14T09:10:18.604Z,25.03
2023-06-14T09:12:45.389Z,23.55
2023-06-14T09:15:12.226Z,22.28
2023-06-14T09:17:40.060Z,23.35
2023-06-14T09:20:08.814Z,25.55
2023-06-14T09:22:35.866Z,26.68
2023-06-14T09:25:03.438Z,26.77
2023-06-14T09:27:30.743Z,27.94
2023-06-14T09:29:57.809Z,26.43
2023-06-14T09:32:26.379Z,26.45
2023-06-14T09:34:53.170Z,25.03
2023-06-14T09:37:30.700Z,24.48
2023-06-14T09:39:58.777Z,24.06
2023-06-14T09:42:27.103Z,25.12
2023-06-14T09:45:59.373Z,24.62
2023-06-14T09:48:26.476Z,25.59
2023-06-14T09:50:59.194Z,27.68
2023-06-14T09:53:28.936Z,26.28
2023-06-14T09:55:58.399Z,26.42
2023-06-14T09:58:28.794Z,27.36
2023-06-14T10:00:55.772Z,26.90
2023-06-14T10:03:31.972Z,27.14
2023-06-14T10:06:09.151Z,28.20
2023-06-14T10:08:38.906Z,29.65
2023-06-14T10:11:05.626Z,31.88
2023-06-14T10:13:34.192Z,30.50
2023-06-14T10:16:19.839Z,30.02
2023-06-14T10:19:14.774Z,29.64
2023-06-14T10:21:50.148Z,29.35
2023-06-14T10:24:24.908Z,29.99
2023-06-14T10:26:56.754Z,30.87
2023-06-14T10:29:25.243Z,31.38
2023-06-14T10:31:57.854Z,30.42
2023-06-14T10:34:28.598Z,30.82
2023-06-14T10:37:12.842Z,31.75
2023-06-14T10:39:42.503Z,31.98
2023-06-14T10:42:09.589Z,32.33
2023-06-14T10:44:55.426Z,31.75
2023-06-14T10:47:29.589Z,31.80
2023-06-14T10:50:04.193Z,31.05
2023-06-14T10:52:35.220Z,30.65
2023-06-14T10:55:12.622Z,30.15
2023-06-14T10:57:51.638Z,30.53
2023-06-14T11:00:36.545Z,30.42
2023-06-14T11:03:31.674Z,30.62
2023-06-14T11:06:01.839Z,30.07
2023-06-14T11:09:14.130Z,28.93
2023-06-14T11:11:43.735Z,29.90
2023-06-14T11:14:11.421Z,30.24
2023-06-14T11:16:38.198Z,29.48
2023-06-14T11:19:05.160Z,30.04
2023-06-14T11:21:34.411Z,29.42
2023-06-14T11:24:01.421Z,29.85
2023-06-14T11:26:32.774Z,29.73
2023-06-14T11:29:01.009Z,28.86
2023-06-14T11:31:29.479Z,28.56
2023-06-14T11:33:58.017Z,29.53
2023-06-14T11:36:28.511Z,29.42
2023-06-14T11:39:03.544Z,26.28
2023-06-14T11:41:42.344Z,25.06
2023-06-14T11:44:10.274Z,26.27
2023-06-14T11:46:37.176Z,24.39
2023-06-14T11:49:05.266Z,25.71
2023-06-14T11:51:34.762Z,27.21
2023-06-14T11:54:06.580Z,28.50
2023-06-14T11:56:33.917Z,28.77
2023-06-14T11:59:01.249Z,29.39
2023-06-14T12:01:28.308Z,29.46
2023-06-14T12:03:56.063Z,28.78
2023-06-14T12:06:30.918Z,28.46
2023-06-14T12:08:58.071Z,28.15
2023-06-14T12:11:29.115Z,27.67
2023-06-14T12:13:57.939Z,26.97
2023-06-14T12:16:32.293Z,26.83
2023-06-14T12:19:01.948Z,27.97
2023-06-14T12:21:28.673Z,28.57
2023-06-14T12:23:55.870Z,27.97
2023-06-14T12:26:22.640Z,28.90
2023-06-14T12:28:49.483Z,28.83
2023-06-14T12:31:17.124Z,26.92
2023-06-14T12:33:44.608Z,27.85
2023-06-14T12:36:12.071Z,29.03
2023-06-14T12:38:38.858Z,28.77
2023-06-14T12:41:05.815Z,27.53
2023-06-14T12:43:32.678Z,26.62
2023-06-14T12:45:59.500Z,27.67
2023-06-14T12:48:26.703Z,26.53
2023-06-14T12:50:53.630Z,27.27
2023-06-14T12:53:20.349Z,27.19
2023-06-14T12:55:47.122Z,27.74
2023-06-14T12:58:13.820Z,27.13
2023-06-14T13:00:41.138Z,28.12
2023-06-14T13:03:07.965Z,26.55
2023-06-14T13:05:34.788Z,25.82
2023-06-14T13:08:01.875Z,27.14
2023-06-14T13:10:30.546Z,25.28
2023-06-14T13:12:57.287Z,26.11
2023-06-14T13:15:26.384Z,26.31
2023-06-14T13:17:53.263Z,26.59
2023-06-14T13:20:21.062Z,27.56
2023-06-14T13:22:48.170Z,27.00
2023-06-14T13:25:14.885Z,27.24
2023-06-14T13:27:41.591Z,22.43
2023-06-14T13:30:08.689Z,24.06
2023-06-14T13:32:35.453Z,20.92
2023-06-14T13:35:02.246Z,21.59
2023-06-14T13:37:29.132Z,20.05
2023-06-14T13:39:55.908Z,20.21
2023-06-14T13:42:22.599Z,20.73
2023-06-14T13:44:49.338Z,18.71
2023-06-14T13:47:16.004Z,19.68
2023-06-14T13:49:42.716Z,18.56
2023-06-14T13:52:09.497Z,18.03
2023-06-14T13:54:36.217Z,18.07
2023-06-14T13:57:02.925Z,18.83
2023-06-14T13:59:29.613Z,18.50
2023-06-14T14:01:56.296Z,19.82
2023-06-14T14:04:23.102Z,19.70
2023-06-14T14:06:49.835Z,21.11
2023-06-14T14:09:16.561Z,19.89
2023-06-14T14:11:43.309Z,18.83
2023-06-14T14:14:09.997Z,18.44
2023-06-14T14:16:36.877Z,18.16
2023-06-14T14:19:03.725Z,16.92
2023-06-14T14:21:31.234Z,19.98
2023-06-14T14:23:57.976Z,20.41
2023-06-14T14:26:24.870Z,20.12
2023-06-14T14:28:52.338Z,16.76
2023-06-14T14:31:19.876Z,16.46
2023-06-14T14:33:46.690Z,17.44
2023-06-14T14:36:13.412Z,15.64
2023-06-14T14:38:40.083Z,15.54
2023-06-14T14:41:06.798Z,16.16
2023-06-14T14:43:33.511Z,16.93
2023-06-14T14:46:00.227Z,16.89
2023-06-14T14:48:26.924Z,12.92
2023-06-14T14:50:53.665Z,12.70
2023-06-14T14:53:20.321Z,13.82
2023-06-14T14:55:47.049Z,15.14
2023-06-14T14:58:14.748Z,15.36
2023-06-14T15:00:41.411Z,14.25
2023-06-14T15:03:08.179Z,15.04
2023-06-14T15:05:34.941Z,14.75
2023-06-14T15:08:01.638Z,14.69
2023-06-14T15:10:28.316Z,13.88
2023-06-14T15:12:55.025Z,13.55
2023-06-14T15:15:23.351Z,15.11
2023-06-14T15:17:50.089Z,13.89
2023-06-14T15:20:17.050Z,13.41
2023-06-14T15:22:43.946Z,14.90
2023-06-14T15:25:10.769Z,12.97
2023-06-14T15:27:37.516Z,14.17
2023-06-14T15:30:04.547Z,13.56
2023-06-14T15:32:31.268Z,13.04
2023-06-14T15:34:57.950Z,13.52
2023-06-14T15:37:24.662Z,14.09
2023-06-14T15:39:51.356Z,14.72
2023-06-14T15:42:18.058Z,15.22
2023-06-14T15:44:44.752Z,14.98
2023-06-14T15:47:11.434Z,15.36
2023-06-14T15:49:38.108Z,14.53
2023-06-14T15:52:05.183Z,14.70
2023-06-14T15:54:34.070Z,14.79
2023-06-14T15:57:00.743Z,16.00
2023-06-14T15:59:27.474Z,15.27
2023-06-14T16:01:54.212Z,16.30
2023-06-14T16:04:21.294Z,15.85
2023-06-14T16:06:47.988Z,15.64
2023-06-14T16:09:14.648Z,14.80
2023-06-14T16:11:42.078Z,15.80
2023-06-14T16:14:08.887Z,16.57
2023-06-14T16:16:35.720Z,17.04
2023-06-14T16:19:02.444Z,17.33
2023-06-14T16:21:29.152Z,17.64
2023-06-14T16:23:55.897Z,17.15
2023-06-14T16:26:22.603Z,17.27
2023-06-14T16:28:49.270Z,17.68
2023-06-14T16:31:15.959Z,18.00
2023-06-14T16:33:42.730Z,18.12
2023-06-14T16:36:13.233Z,17.19
2023-06-14T16:38:40.205Z,17.97
2023-06-14T16:41:06.873Z,18.19
2023-06-14T16:43:33.561Z,17.92
2023-06-14T16:46:02.816Z,18.44
2023-06-14T16:48:29.601Z,18.67
2023-06-14T16:50:56.459Z,18.44
2023-06-14T16:53:23.142Z,18.41
2023-06-14T16:55:49.896Z,18.76
2023-06-14T16:58:16.775Z,18.86
2023-06-14T17:00:43.479Z,18.87
2023-06-14T17:03:11.378Z,18.00
2023-06-14T17:05:54.230Z,18.54
2023-06-14T17:08:20.973Z,18.94
2023-06-14T17:10:47.675Z,18.53
2023-06-14T17:13:17.459Z,18.77
2023-06-14T17:15:44.458Z,18.51
2023-06-14T17:18:11.312Z,18.64
2023-06-14T17:20:38.059Z,18.70
2023-06-14T17:23:04.922Z,18.19
2023-06-14T17:25:31.822Z,18.50
2023-06-14T17:27:58.574Z,18.97
2023-06-14T17:30:25.471Z,19.26
2023-06-14T17:32:54.506Z,20.18
2023-06-14T17:35:21.329Z,20.49
2023-06-14T17:37:50.304Z,20.82
2023-06-14T17:40:17.604Z,20.24
2023-06-14T17:42:44.661Z,20.09
2023-06-14T17:45:11.669Z,21.07
2023-06-14T17:47:40.886Z,20.49
2023-06-14T17:50:08.564Z,21.16
2023-06-14T17:52:35.392Z,21.50
2023-06-14T17:55:03.627Z,21.12
2023-06-14T17:57:30.334Z,21.47
2023-06-14T17:59:57.354Z,21.13
2023-06-14T18:02:24.112Z,21.62
2023-06-14T18:04:50.880Z,22.15
2023-06-14T18:07:17.607Z,22.53
2023-06-14T18:09:44.352Z,22.64
2023-06-14T18:12:11.073Z,22.79
2023-06-14T18:14:38.043Z,22.82
2023-06-14T18:17:05.069Z,23.01
2023-06-14T18:19:31.830Z,23.12
2023-06-14T18:21:59.978Z,22.82
2023-06-14T18:24:26.706Z,22.56
2023-06-14T18:26:53.481Z,22.82
2023-06-14T18:29:20.196Z,23.08
2023-06-14T18:31:47.076Z,23.16
2023-06-14T18:34:13.884Z,23.55
2023-06-14T18:36:40.666Z,23.51
2023-06-14T18:39:07.469Z,23.74
2023-06-14T18:41:35.501Z,23.98
2023-06-14T18:44:02.307Z,24.04
2023-06-14T18:46:29.056Z,24.04
2023-06-14T18:48:55.793Z,24.19
2023-06-14T18:51:22.504Z,24.08
2023-06-14T18:53:49.265Z,24.32
2023-06-14T18:56:15.992Z,24.16
2023-06-14T18:58:42.723Z,24.58
2023-06-14T19:01:09.452Z,24.78
2023-06-14T19:03:36.397Z,25.33
2023-06-14T19:06:03.211Z,25.36
2023-06-14T19:08:29.951Z,26.57
2023-06-14T19:10:56.654Z,26.85
2023-06-14T19:13:24.057Z,27.35
2023-06-14T19:15:50.757Z,27.54
2023-06-14T19:18:17.558Z,28.03
2023-06-14T19:20:44.329Z,28.75
2023-06-14T19:23:11.162Z,29.30
2023-06-14T19:25:37.836Z,29.75
2023-06-14T19:28:04.707Z,30.11
2023-06-14T19:30:31.451Z,30.22
2023-06-14T19:32:58.255Z,31.25
2023-06-14T19:35:25.030Z,31.30
2023-06-14T19:37:51.960Z,31.74
2023-06-14T19:40:20.217Z,31.70
2023-06-14T19:42:47.344Z,32.22
2023-06-14T19:45:14.221Z,32.00
2023-06-14T19:47:43.800Z,32.40
2023-06-14T19:50:10.795Z,32.34
2023-06-14T19:52:37.503Z,32.57
2023-06-14T19:55:04.600Z,32.91
2023-06-14T19:57:31.320Z,32.70
2023-06-14T19:59:57.981Z,32.65
2023-06-14T20:02:24.697Z,32.86
2023-06-14T20:04:51.478Z,32.89
2023-06-14T20:07:18.149Z,33.14
2023-06-14T20:09:44.855Z,33.52
2023-06-14T20:12:11.641Z,33.43
2023-06-14T20:14:39.049Z,33.51
2023-06-14T20:17:06.057Z,33.58
2023-06-14T20:19:32.740Z,33.38
2023-06-14T20:21:59.511Z,33.90
2023-06-14T20:24:29.335Z,34.01
2023-06-14T20:26:56.203Z,34.09
2023-06-14T20:29:22.883Z,34.35
2023-06-14T20:31:49.709Z,34.25
2023-06-14T20:34:16.449Z,34.74
2023-06-14T20:36:43.165Z,35.18
2023-06-14T20:39:09.942Z,35.20
2023-06-14T20:41:37.329Z,35.22
2023-06-14T20:44:04.084Z,34.94
2023-06-14T20:46:30.781Z,34.99
2023-06-14T20:48:57.532Z,34.68
2023-06-14T20:51:24.498Z,35.30
2023-06-14T20:53:51.348Z,35.85
2023-06-14T20:56:18.120Z,35.51
2023-06-14T20:58:44.833Z,35.55
2023-06-14T21:01:11.568Z,35.95
2023-06-14T21:03:38.373Z,35.79
2023-06-14T21:06:05.095Z,36.26
2023-06-14T21:08:31.812Z,36.33
2023-06-14T21:10:58.498Z,36.68
2023-06-14T21:13:25.198Z,36.70
2023-06-14T21:15:51.915Z,36.74
2023-06-14T21:18:18.848Z,36.78
2023-06-14T21:20:45.729Z,37.07
2023-06-14T21:23:12.420Z,36.95
2023-06-14T21:25:39.278Z,37.04
2023-06-14T21:28:06.089Z,37.45
2023-06-14T21:30:34.137Z,37.28
2023-06-14T21:33:01.337Z,37.25
2023-06-14T21:35:28.072Z,36.97
2023-06-14T21:37:54.842Z,37.23
2023-06-14T21:40:21.548Z,37.46
2023-06-14T21:42:48.316Z,37.45
2023-06-14T21:45:15.025Z,37.36
2023-06-14T21:47:41.736Z,37.40
2023-06-14T21:50:09.050Z,37.45
2023-06-14T21:52:35.756Z,37.58
2023-06-14T21:55:02.453Z,37.24
2023-06-14T21:57:29.251Z,37.71
2023-06-14T21:59:56.041Z,37.73
2023-06-14T22:02:23.167Z,37.59
2023-06-14T22:04:50.081Z,37.42
2023-06-14T22:07:17.960Z,37.77
2023-06-14T22:09:44.687Z,37.74
2023-06-14T22:12:11.439Z,37.61
2023-06-14T22:14:38.113Z,38.22
2023-06-14T22:17:05.090Z,37.62
2023-06-14T22:19:31.809Z,37.91
2023-06-14T22:21:58.508Z,37.92
2023-06-14T22:24:25.317Z,37.96
2023-06-14T22:26:51.982Z,37.83
2023-06-14T22:29:18.727Z,38.21
2023-06-14T22:31:45.457Z,38.09
2023-06-14T22:34:12.303Z,37.75
2023-06-14T22:36:39.005Z,38.34
2023-06-14T22:39:06.100Z,38.15
2023-06-14T22:41:32.943Z,38.41
2023-06-14T22:44:00.005Z,38.35
2023-06-14T22:46:26.773Z,38.90
2023-06-14T22:48:53.508Z,38.21
2023-06-14T22:51:22.202Z,38.23
2023-06-14T22:53:49.418Z,38.43
2023-06-14T22:56:18.363Z,38.35
2023-06-14T22:58:45.905Z,38.23
2023-06-14T23:01:16.088Z,38.75
2023-06-14T23:03:43.798Z,38.61
2023-06-14T23:06:12.115Z,38.37
2023-06-14T23:08:38.794Z,38.18
2023-06-14T23:11:05.521Z,38.35
2023-06-14T23:13:34.521Z,37.83
2023-06-14T23:16:01.207Z,38.26
2023-06-14T23:18:27.921Z,37.94
2023-06-14T23:20:54.597Z,38.26
2023-06-14T23:23:21.322Z,38.24
2023-06-14T23:25:48.744Z,37.64
2023-06-14T23:28:15.437Z,37.90
2023-06-14T23:30:42.132Z,38.46
2023-06-14T23:33:08.977Z,38.11
2023-06-14T23:35:35.683Z,37.56
2023-06-14T23:38:02.376Z,37.82
2023-06-14T23:40:29.039Z,37.49
2023-06-14T23:42:56.458Z,37.80
2023-06-14T23:45:24.405Z,37.01
2023-06-14T23:47:51.390Z,37.34
2023-06-14T23:50:18.223Z,36.67
2023-06-14T23:52:44.934Z,36.87
2023-06-14T23:55:11.930Z,37.19
2023-06-14T23:57:38.579Z,37.06
